Time;durP1;ratioP1;P1;durP2;ratioP2;P2;SDS_P1;SDS_P2;PMS_P1;PMS_P2;Temp;Humidity;BMP_temperature;BMP_pressure;BME280_temperature;BME280_humidity;BME280_pressure;Samples;Min_cycle;Max_cycle;Signal;HPM_P1;HPM_P2
2023/08/27 00:01:28;;;;;;;7.33;5.60;;;14.80;99.90;;;;;;5158197;27;20043;-75
2023/08/27 00:03:55;;;;;;;7.20;5.70;;;14.80;99.90;;;;;;5158426;27;20061;-75
2023/08/27 00:06:21;;;;;;;8.33;6.17;;;14.80;99.90;;;;;;5140177;27;20046;-76
2023/08/27 00:08:47;;;;;;;6.20;5.30;;;14.80;99.90;;;;;;5158146;27;20500;-75
2023/08/27 00:11:12;;;;;;;7.13;5.67;;;14.80;99.90;;;;;;5139838;27;20055;-76
2023/08/27 00:13:38;;;;;;;6.97;5.73;;;14.80;99.90;;;;;;5158056;27;20062;-75
2023/08/27 00:16:07;;;;;;;7.63;5.97;;;14.80;99.90;;;;;;5139684;27;20042;-75
2023/08/27 00:18:33;;;;;;;7.37;6.10;;;14.80;99.90;;;;;;5157943;27;20129;-76
2023/08/27 00:20:58;;;;;;;11.80;7.43;;;14.80;99.90;;;;;;5158154;27;20121;-75
2023/08/27 00:23:24;;;;;;;7.03;6.00;;;14.80;99.90;;;;;;5158183;27;20043;-76
2023/08/27 00:25:50;;;;;;;9.13;6.73;;;14.80;99.90;;;;;;5157787;27;20525;-76
2023/08/27 00:28:16;;;;;;;8.23;6.97;;;14.80;99.90;;;;;;5158065;27;20121;-75
2023/08/27 00:30:43;;;;;;;7.80;6.43;;;14.70;99.90;;;;;;5157685;27;20042;-75
2023/08/27 00:33:09;;;;;;;10.50;6.87;;;14.70;99.90;;;;;;5157892;27;20039;-75
2023/08/27 00:35:36;;;;;;;7.70;6.37;;;14.60;99.90;;;;;;5157509;27;20058;-75
2023/08/27 00:38:02;;;;;;;8.47;6.37;;;14.60;99.90;;;;;;5158125;27;20069;-75
2023/08/27 00:40:28;;;;;;;7.60;6.70;;;14.70;99.90;;;;;;5157900;27;20039;-75
2023/08/27 00:42:57;;;;;;;10.67;7.13;;;14.70;99.90;;;;;;5157434;27;20478;-76
2023/08/27 00:45:23;;;;;;;7.77;6.20;;;14.60;99.90;;;;;;5157636;27;20082;-76
2023/08/27 00:47:49;;;;;;;8.43;6.90;;;14.60;99.90;;;;;;5157202;27;20534;-75
2023/08/27 00:50:15;;;;;;;7.60;6.70;;;14.60;99.90;;;;;;5157976;27;20046;-75
2023/08/27 00:52:43;;;;;;;7.97;6.60;;;14.60;99.90;;;;;;5157255;27;20039;-76
2023/08/27 00:55:08;;;;;;;8.87;7.10;;;14.60;99.90;;;;;;5138797;27;20051;-76
2023/08/27 00:57:38;;;;;;;8.90;6.80;;;14.60;99.90;;;;;;5157332;27;20099;-76
2023/08/27 01:00:09;;;;;;;8.57;7.63;;;14.60;99.90;;;;;;5157338;27;20039;-76
2023/08/27 01:02:35;;;;;;;11.47;7.17;;;14.60;99.90;;;;;;5157505;27;20049;-76
2023/08/27 01:05:00;;;;;;;9.37;6.97;;;14.60;99.90;;;;;;5157228;27;20146;-76
2023/08/27 01:07:39;;;;;;;8.00;6.97;;;14.60;99.90;;;;;;5138695;27;20046;-76
2023/08/27 01:10:34;;;;;;;7.50;6.80;;;14.60;99.90;;;;;;5156757;27;20054;-75
2023/08/27 01:13:03;;;;;;;8.87;6.63;;;14.60;99.90;;;;;;5124851;27;20126;-76
2023/08/27 01:15:29;;;;;;;10.17;7.30;;;14.60;99.90;;;;;;5137925;27;20055;-76
2023/08/27 01:17:58;;;;;;;8.87;7.30;;;14.60;99.90;;;;;;5137203;27;20494;-76
2023/08/27 01:20:23;;;;;;;8.70;7.47;;;14.60;99.90;;;;;;5155861;27;20095;-77
2023/08/27 01:22:49;;;;;;;9.03;7.10;;;14.60;99.90;;;;;;5155286;27;20046;-76
2023/08/27 01:25:23;;;;;;;8.50;7.23;;;14.60;99.90;;;;;;5156392;27;20038;-77
2023/08/27 01:27:56;;;;;;;8.23;6.97;;;14.60;99.90;;;;;;5155491;27;20047;-76
2023/08/27 01:30:33;;;;;;;8.20;6.83;;;14.60;99.90;;;;;;5137743;27;20050;-76
2023/08/27 01:33:04;;;;;;;9.40;7.20;;;14.60;99.90;;;;;;5136958;27;20042;-76
2023/08/27 01:35:32;;;;;;;9.27;6.47;;;14.60;99.90;;;;;;5155696;27;20086;-76
2023/08/27 01:37:57;;;;;;;10.63;7.10;;;14.50;99.90;;;;;;5155355;27;20074;-76
2023/08/27 01:40:26;;;;;;;9.33;7.60;;;14.50;99.90;;;;;;5155626;27;20517;-76
2023/08/27 01:42:52;;;;;;;9.37;7.07;;;14.50;99.90;;;;;;5155335;27;20050;-76
2023/08/27 01:45:18;;;;;;;9.27;6.83;;;14.50;99.90;;;;;;5155467;27;20046;-76
2023/08/27 01:47:44;;;;;;;7.93;7.07;;;14.40;99.90;;;;;;5155057;27;20076;-76
2023/08/27 01:50:10;;;;;;;9.50;7.40;;;14.40;99.90;;;;;;5155093;27;20056;-77
2023/08/27 01:52:36;;;;;;;7.87;7.07;;;14.40;99.90;;;;;;5155318;27;20092;-76
2023/08/27 01:55:03;;;;;;;7.97;7.10;;;14.20;99.90;;;;;;5136767;27;20255;-76
2023/08/27 01:57:29;;;;;;;7.77;6.97;;;14.40;99.90;;;;;;5155234;27;20117;-77
2023/08/27 01:59:55;;;;;;;8.03;6.83;;;14.30;99.90;;;;;;5154978;27;20092;-76
2023/08/27 02:02:21;;;;;;;9.60;6.97;;;14.40;99.90;;;;;;5155371;27;20509;-77
2023/08/27 02:04:46;;;;;;;8.97;6.80;;;14.40;99.90;;;;;;5154921;27;20188;-76
2023/08/27 02:07:12;;;;;;;9.17;6.70;;;14.40;99.90;;;;;;5154398;27;20087;-77
2023/08/27 02:09:38;;;;;;;7.83;6.40;;;14.40;99.90;;;;;;5113295;27;1164725;-76
2023/08/27 02:12:04;;;;;;;8.53;6.73;;;14.50;99.90;;;;;;5155787;27;20138;-76
2023/08/27 02:14:30;;;;;;;8.90;7.00;;;14.50;99.90;;;;;;5155931;27;20050;-77
2023/08/27 02:16:55;;;;;;;9.53;7.13;;;14.50;99.90;;;;;;5155555;27;20098;-76
2023/08/27 02:19:21;;;;;;;7.77;6.97;;;14.40;99.90;;;;;;5155836;27;20045;-76
2023/08/27 02:21:47;;;;;;;8.20;6.97;;;14.40;99.90;;;;;;5155517;27;20078;-76
2023/08/27 02:24:13;;;;;;;9.67;7.07;;;14.40;99.90;;;;;;5137456;27;20039;-77
2023/08/27 02:26:39;;;;;;;9.67;7.30;;;14.40;99.90;;;;;;5155561;27;20494;-76
2023/08/27 02:29:05;;;;;;;9.17;7.17;;;14.40;99.90;;;;;;5155665;27;20157;-76
2023/08/27 02:31:30;;;;;;;8.73;7.83;;;14.30;99.90;;;;;;5155627;27;20387;-76
2023/08/27 02:33:56;;;;;;;8.37;7.50;;;14.40;99.90;;;;;;5136975;27;20351;-76
2023/08/27 02:36:22;;;;;;;9.80;6.97;;;14.40;99.90;;;;;;5155464;27;20098;-76
2023/08/27 02:38:47;;;;;;;9.17;7.40;;;14.40;99.90;;;;;;5136736;27;20039;-76
2023/08/27 02:41:13;;;;;;;8.30;7.50;;;14.30;99.90;;;;;;5155573;27;20481;-76
2023/08/27 02:43:39;;;;;;;8.93;7.70;;;14.30;99.90;;;;;;5155351;27;20107;-76
2023/08/27 02:46:06;;;;;;;11.33;7.90;;;14.30;99.90;;;;;;5136629;27;20092;-76
2023/08/27 02:48:32;;;;;;;9.53;7.47;;;14.30;99.90;;;;;;5155270;27;20157;-76
2023/08/27 02:50:57;;;;;;;9.00;7.43;;;14.30;99.90;;;;;;5154920;27;20423;-76
2023/08/27 02:53:23;;;;;;;9.37;7.33;;;14.30;99.90;;;;;;5136761;27;20039;-76
2023/08/27 02:55:49;;;;;;;12.43;7.70;;;14.30;99.90;;;;;;5154515;27;20042;-76
2023/08/27 02:58:14;;;;;;;8.33;7.27;;;14.30;99.90;;;;;;5155166;27;20141;-76
2023/08/27 03:00:40;;;;;;;13.17;7.37;;;14.30;99.90;;;;;;5155126;27;20066;-77
2023/08/27 03:03:07;;;;;;;8.33;6.77;;;14.30;99.90;;;;;;5154723;27;20074;-76
2023/08/27 03:05:33;;;;;;;10.70;7.63;;;14.20;99.90;;;;;;5154971;27;20126;-76
2023/08/27 03:07:59;;;;;;;9.07;7.13;;;14.20;99.90;;;;;;5154908;27;20042;-76
2023/08/27 03:10:25;;;;;;;9.83;7.53;;;14.20;99.90;;;;;;5154846;27;20086;-76
2023/08/27 03:12:50;;;;;;;7.87;7.07;;;14.10;99.90;;;;;;5154514;27;20103;-75
2023/08/27 03:15:16;;;;;;;9.17;7.07;;;14.10;99.90;;;;;;5136736;27;20075;-76
2023/08/27 03:17:42;;;;;;;9.57;7.23;;;14.20;99.90;;;;;;5154777;27;20478;-76
2023/08/27 03:20:08;;;;;;;9.70;6.87;;;14.20;99.90;;;;;;5154554;27;20454;-76
2023/08/27 03:22:34;;;;;;;8.20;7.40;;;14.30;99.90;;;;;;5154772;27;20053;-76
2023/08/27 03:25:01;;;;;;;9.10;7.60;;;14.30;99.90;;;;;;5154537;27;20486;-76
2023/08/27 03:27:28;;;;;;;9.70;7.70;;;14.30;99.90;;;;;;5154693;27;20430;-76
2023/08/27 03:29:54;;;;;;;9.37;7.63;;;14.30;99.90;;;;;;5154345;27;20086;-76
2023/08/27 03:32:19;;;;;;;12.80;7.87;;;14.30;99.90;;;;;;5136551;27;20081;-76
2023/08/27 03:34:45;;;;;;;9.93;7.97;;;14.30;99.90;;;;;;5154828;27;20086;-76
2023/08/27 03:37:11;;;;;;;9.50;7.67;;;14.30;99.90;;;;;;5154296;27;20050;-76
2023/08/27 03:39:36;;;;;;;8.70;7.43;;;14.40;99.90;;;;;;5136143;27;20050;-76
2023/08/27 03:42:03;;;;;;;10.43;8.30;;;14.40;99.90;;;;;;5154244;27;20501;-76
2023/08/27 03:44:28;;;;;;;9.93;8.23;;;14.40;99.90;;;;;;5136428;27;20141;-76
2023/08/27 03:46:54;;;;;;;10.40;7.50;;;14.40;99.90;;;;;;5154327;27;20111;-75
2023/08/27 03:49:20;;;;;;;10.50;7.87;;;14.40;99.90;;;;;;5154531;27;20530;-76
2023/08/27 03:51:46;;;;;;;10.47;7.27;;;14.40;99.90;;;;;;5154457;27;20385;-76
2023/08/27 03:54:11;;;;;;;8.83;7.93;;;14.50;99.90;;;;;;5154266;27;20054;-75
2023/08/27 03:56:37;;;;;;;9.70;8.30;;;14.50;99.90;;;;;;5154537;27;20127;-76
2023/08/27 03:59:03;;;;;;;8.43;7.27;;;14.50;99.90;;;;;;5135860;27;20099;-75
2023/08/27 04:01:30;;;;;;;9.27;8.07;;;14.50;99.90;;;;;;5136072;27;20053;-76
2023/08/27 04:03:55;;;;;;;9.43;7.53;;;14.50;99.90;;;;;;5154389;27;20390;-76
2023/08/27 04:06:21;;;;;;;10.83;8.20;;;14.50;99.90;;;;;;5154245;27;20039;-76
2023/08/27 04:08:48;;;;;;;11.47;8.60;;;14.50;99.90;;;;;;5154345;27;20050;-76
2023/08/27 04:11:15;;;;;;;9.03;7.10;;;14.50;99.90;;;;;;5135141;27;20054;-76
2023/08/27 04:13:41;;;;;;;9.77;7.87;;;14.50;99.90;;;;;;5154227;27;20623;-76
2023/08/27 04:16:09;;;;;;;9.43;7.70;;;14.50;99.90;;;;;;5153959;27;20051;-76
2023/08/27 04:18:35;;;;;;;10.03;8.03;;;14.50;99.90;;;;;;5154322;27;20054;-76
2023/08/27 04:21:01;;;;;;;8.63;7.63;;;14.50;99.90;;;;;;5153862;27;20628;-76
2023/08/27 04:23:27;;;;;;;9.53;7.80;;;14.50;99.90;;;;;;5154287;27;20085;-76
2023/08/27 04:25:53;;;;;;;8.70;7.90;;;14.50;99.90;;;;;;5154271;27;20478;-76
2023/08/27 04:28:20;;;;;;;10.33;8.20;;;14.50;99.90;;;;;;5153742;27;20043;-76
2023/08/27 04:30:49;;;;;;;10.47;8.47;;;14.50;99.90;;;;;;5155909;27;20085;-77
2023/08/27 04:33:16;;;;;;;9.37;7.87;;;14.40;99.90;;;;;;5157683;27;20042;-76
2023/08/27 04:35:44;;;;;;;9.10;7.80;;;14.40;99.90;;;;;;5158084;27;20039;-76
2023/08/27 04:38:10;;;;;;;9.93;8.10;;;14.30;99.90;;;;;;5157573;27;20431;-76
2023/08/27 04:40:36;;;;;;;8.33;7.10;;;14.30;99.90;;;;;;5157874;27;20051;-76
2023/08/27 04:43:02;;;;;;;11.93;8.17;;;14.20;99.90;;;;;;5157443;27;20057;-76
2023/08/27 04:45:28;;;;;;;10.07;8.07;;;14.30;99.90;;;;;;5157751;27;20104;-76
2023/08/27 04:47:54;;;;;;;9.23;7.73;;;14.20;99.90;;;;;;5157727;27;20047;-76
2023/08/27 04:50:20;;;;;;;8.83;7.83;;;14.30;99.90;;;;;;5157288;27;20282;-76
2023/08/27 04:52:46;;;;;;;8.70;7.77;;;14.30;99.90;;;;;;5157604;27;20115;-75
2023/08/27 04:55:12;;;;;;;8.70;7.67;;;14.30;99.90;;;;;;5157337;27;20074;-75
2023/08/27 04:57:38;;;;;;;9.53;7.87;;;14.30;99.90;;;;;;5139534;27;20129;-76
2023/08/27 05:00:08;;;;;;;12.67;8.17;;;14.30;99.90;;;;;;5157141;27;20134;-76
2023/08/27 05:02:37;;;;;;;10.00;8.03;;;14.30;99.90;;;;;;5157442;27;20043;-76
2023/08/27 05:05:03;;;;;;;9.00;7.63;;;14.40;99.90;;;;;;5157131;27;20548;-76
2023/08/27 05:07:29;;;;;;;8.33;7.50;;;14.50;99.90;;;;;;5157212;27;20035;-76
2023/08/27 05:09:55;;;;;;;10.20;7.83;;;14.50;99.90;;;;;;5138678;27;20280;-76
2023/08/27 05:12:21;;;;;;;7.47;6.73;;;14.60;99.90;;;;;;5138320;27;20058;-75
2023/08/27 05:14:46;;;;;;;8.93;7.33;;;14.60;99.90;;;;;;5157176;27;20393;-76
2023/08/27 05:17:12;;;;;;;9.93;7.33;;;14.70;99.90;;;;;;5138640;27;20126;-76
2023/08/27 05:19:38;;;;;;;9.17;7.33;;;14.70;99.90;;;;;;5138529;27;20506;-76
2023/08/27 05:22:04;;;;;;;8.90;7.30;;;14.80;99.90;;;;;;5157004;27;20085;-76
2023/08/27 05:24:30;;;;;;;10.97;7.80;;;14.80;99.90;;;;;;5156722;27;20557;-76
2023/08/27 05:26:56;;;;;;;10.10;7.70;;;14.80;99.90;;;;;;5156843;27;20039;-76
2023/08/27 05:29:21;;;;;;;10.37;6.60;;;14.90;99.90;;;;;;5156381;27;20043;-76
2023/08/27 05:31:47;;;;;;;8.70;6.97;;;14.90;99.90;;;;;;5156808;27;20089;-76
2023/08/27 05:34:14;;;;;;;11.13;7.47;;;14.80;99.90;;;;;;5156497;27;20042;-76
2023/08/27 05:36:40;;;;;;;9.27;7.37;;;14.80;99.90;;;;;;5138493;27;20050;-76
2023/08/27 05:39:06;;;;;;;9.93;7.50;;;14.80;99.90;;;;;;5120964;27;20058;-76
2023/08/27 05:41:32;;;;;;;11.17;7.53;;;14.80;99.90;;;;;;5155480;27;20091;-76
2023/08/27 05:43:59;;;;;;;9.23;8.20;;;14.80;99.90;;;;;;5156336;27;20042;-76
2023/08/27 05:46:25;;;;;;;8.63;7.77;;;14.80;99.90;;;;;;5137827;27;20095;-76
2023/08/27 05:48:51;;;;;;;9.90;7.87;;;14.80;99.90;;;;;;5156529;27;20042;-76
2023/08/27 05:51:16;;;;;;;10.70;8.13;;;14.90;99.90;;;;;;5137829;27;20121;-76
2023/08/27 05:53:42;;;;;;;10.50;8.53;;;14.90;99.90;;;;;;5156714;27;20562;-76
2023/08/27 05:56:08;;;;;;;10.53;7.90;;;14.90;99.90;;;;;;5137868;27;20099;-76
2023/08/27 05:58:34;;;;;;;10.53;7.70;;;14.90;99.90;;;;;;5156183;27;20046;-75
2023/08/27 06:01:02;;;;;;;9.00;7.43;;;14.90;99.90;;;;;;5156315;27;20367;-76
2023/08/27 06:03:28;;;;;;;11.63;8.17;;;14.90;99.90;;;;;;5155944;27;20046;-75
2023/08/27 06:05:54;;;;;;;9.40;7.53;;;15.00;99.90;;;;;;5156219;27;20398;-75
2023/08/27 06:08:19;;;;;;;10.20;7.20;;;15.00;99.90;;;;;;5155891;27;20039;-75
2023/08/27 06:10:45;;;;;;;9.63;6.97;;;15.00;99.90;;;;;;5137269;27;20082;-76
2023/08/27 06:13:11;;;;;;;8.93;7.13;;;15.00;99.90;;;;;;5155819;27;20050;-75
2023/08/27 06:15:40;;;;;;;10.10;7.03;;;15.10;99.90;;;;;;5155968;27;20043;-76
2023/08/27 06:18:07;;;;;;;10.80;7.30;;;15.10;99.90;;;;;;5137723;27;20129;-75
2023/08/27 06:20:36;;;;;;;9.27;7.43;;;15.10;99.90;;;;;;5119868;27;20137;-75
2023/08/27 06:23:04;;;;;;;11.00;7.33;;;15.20;99.90;;;;;;5156037;27;20066;-76
2023/08/27 06:25:35;;;;;;;9.90;6.77;;;15.20;99.90;;;;;;5137247;27;20052;-75
2023/08/27 06:28:03;;;;;;;10.27;7.50;;;15.20;99.90;;;;;;5155856;27;20049;-76
2023/08/27 06:30:29;;;;;;;10.57;7.37;;;15.20;99.90;;;;;;5155454;27;20364;-76
2023/08/27 06:32:55;;;;;;;11.63;7.03;;;15.20;99.90;;;;;;5155675;27;20046;-75
2023/08/27 06:35:21;;;;;;;9.80;7.33;;;15.20;99.90;;;;;;5155398;27;20509;-75
2023/08/27 06:37:46;;;;;;;10.97;8.03;;;15.20;99.90;;;;;;5137252;27;20050;-76
2023/08/27 06:40:13;;;;;;;11.77;7.63;;;15.20;99.90;;;;;;5155507;27;20043;-75
2023/08/27 06:42:40;;;;;;;11.30;8.27;;;15.20;99.90;;;;;;5155392;27;20057;-76
2023/08/27 06:45:06;;;;;;;12.23;7.80;;;15.20;99.90;;;;;;5155479;27;20043;-76
2023/08/27 06:47:32;;;;;;;11.30;7.80;;;15.20;99.90;;;;;;5155074;27;20397;-76
2023/08/27 06:49:58;;;;;;;13.73;8.20;;;15.30;99.90;;;;;;5137277;27;20038;-76
2023/08/27 06:52:23;;;;;;;12.10;8.30;;;15.40;99.90;;;;;;5155132;27;20058;-76
2023/08/27 06:54:49;;;;;;;14.00;8.33;;;15.40;99.90;;;;;;5154957;27;20038;-76
2023/08/27 06:57:15;;;;;;;13.60;9.30;;;15.50;99.90;;;;;;5136937;27;20515;-76
2023/08/27 06:59:41;;;;;;;14.60;8.00;;;15.70;99.90;;;;;;5154969;27;20049;-75
2023/08/27 07:02:06;;;;;;;10.97;7.90;;;15.70;99.90;;;;;;5155302;27;20057;-76
2023/08/27 07:04:32;;;;;;;11.43;8.80;;;15.80;99.90;;;;;;5154764;27;20053;-76
2023/08/27 07:06:58;;;;;;;11.43;8.00;;;15.70;99.90;;;;;;5154938;27;20043;-76
2023/08/27 07:09:25;;;;;;;12.47;9.30;;;15.70;99.90;;;;;;5154830;27;20038;-76
2023/08/27 07:11:52;;;;;;;10.53;9.00;;;15.70;99.90;;;;;;5155041;27;20094;-77
2023/08/27 07:14:17;;;;;;;10.60;9.17;;;15.70;99.90;;;;;;5155103;27;20078;-77
2023/08/27 07:16:43;;;;;;;13.27;9.30;;;15.70;99.90;;;;;;5154838;27;20081;-78
2023/08/27 07:19:09;;;;;;;14.17;8.53;;;15.70;99.90;;;;;;5136666;27;20099;-78
2023/08/27 07:21:35;;;;;;;11.17;8.23;;;15.80;99.90;;;;;;5154515;27;20130;-77
2023/08/27 07:24:00;;;;;;;11.10;8.80;;;15.80;99.90;;;;;;5154818;27;20085;-78
2023/08/27 07:26:26;;;;;;;12.70;8.33;;;15.90;99.90;;;;;;5136265;27;20126;-77
2023/08/27 07:28:52;;;;;;;11.10;7.67;;;16.00;99.90;;;;;;5154788;27;20081;-77
2023/08/27 07:31:17;;;;;;;10.37;7.67;;;16.40;99.90;;;;;;5136344;27;20047;-77
2023/08/27 07:33:44;;;;;;;8.93;7.23;;;17.40;99.90;;;;;;5154429;27;20051;-77
2023/08/27 07:36:10;;;;;;;9.17;6.03;;;18.80;99.90;;;;;;5136438;27;20493;-77
2023/08/27 07:38:40;;;;;;;8.27;5.43;;;20.30;99.90;;;;;;5154455;27;20046;-77
2023/08/27 07:41:06;;;;;;;9.43;4.67;;;21.80;99.90;;;;;;5136544;27;20047;-78
2023/08/27 07:43:32;;;;;;;8.63;4.63;;;23.00;99.90;;;;;;5154425;27;20051;-79
2023/08/27 07:45:58;;;;;;;8.17;4.93;;;23.80;99.90;;;;;;5154322;27;20383;-78
2023/08/27 07:48:23;;;;;;;8.43;4.50;;;24.50;99.90;;;;;;5135826;27;20043;-78
2023/08/27 07:50:50;;;;;;;6.10;4.23;;;25.00;99.90;;;;;;5136282;27;20058;-78
2023/08/27 07:53:16;;;;;;;6.23;3.67;;;25.20;99.90;;;;;;5154721;27;20039;-76
2023/08/27 07:55:41;;;;;;;8.97;4.33;;;25.10;99.90;;;;;;5154212;27;20046;-73
2023/08/27 07:58:07;;;;;;;6.00;3.30;;;24.70;99.90;;;;;;5154518;27;20053;-77
2023/08/27 08:00:33;;;;;;;7.03;3.30;;;24.10;99.90;;;;;;5153983;27;20049;-76
2023/08/27 08:02:59;;;;;;;6.07;3.93;;;23.70;99.90;;;;;;5154594;27;20050;-76
2023/08/27 08:05:25;;;;;;;6.00;3.40;;;23.00;99.90;;;;;;5155203;27;20085;-76
2023/08/27 08:07:52;;;;;;;5.80;3.40;;;22.80;99.90;;;;;;5140298;27;20049;-78
2023/08/27 08:10:18;;;;;;;5.97;3.23;;;22.40;99.90;;;;;;5158251;27;20050;-75
2023/08/27 08:12:44;;;;;;;7.93;3.40;;;22.10;99.90;;;;;;5158081;27;20046;-76
2023/08/27 08:15:10;;;;;;;5.93;3.63;;;21.90;99.90;;;;;;5158321;27;20410;-76
2023/08/27 08:17:36;;;;;;;6.37;3.67;;;21.60;99.90;;;;;;5139787;27;20059;-75
2023/08/27 08:20:02;;;;;;;6.90;3.90;;;21.30;99.90;;;;;;5158495;27;20283;-77
2023/08/27 08:22:28;;;;;;;6.53;3.57;;;21.00;99.90;;;;;;5157865;27;20071;-77
2023/08/27 08:24:55;;;;;;;7.30;3.60;;;20.70;99.90;;;;;;5140354;27;20050;-80
2023/08/27 08:27:21;;;;;;;6.13;3.40;;;20.40;99.90;;;;;;5157996;27;20039;-76
2023/08/27 08:29:47;;;;;;;6.20;3.63;;;20.20;99.90;;;;;;5157789;27;20053;-78
2023/08/27 08:32:13;;;;;;;6.60;3.80;;;20.00;99.90;;;;;;5157992;27;20034;-77
2023/08/27 08:34:39;;;;;;;6.53;3.60;;;20.00;99.90;;;;;;5157744;27;20102;-79
2023/08/27 08:37:05;;;;;;;5.40;3.27;;;20.10;99.90;;;;;;5157931;27;20050;-78
2023/08/27 08:39:31;;;;;;;5.33;2.70;;;20.00;99.90;;;;;;5121885;27;20039;-77
2023/08/27 08:42:41;;;;;;;6.17;2.80;;;20.10;99.90;;;;;;5157179;27;20093;-78
2023/08/27 08:45:43;;;;;;;5.67;2.73;;;20.10;99.90;;;;;;5124906;27;20103;-78
2023/08/27 08:48:11;;;;;;;4.87;2.50;;;20.00;99.90;;;;;;5158010;27;20042;-78
2023/08/27 08:50:40;;;;;;;3.80;2.40;;;20.00;99.90;;;;;;5157344;27;20099;-77
2023/08/27 08:53:14;;;;;;;5.07;2.33;;;20.00;99.90;;;;;;5157677;27;20395;-78
2023/08/27 08:55:45;;;;;;;3.47;1.93;;;20.00;99.90;;;;;;5157521;27;20057;-77
2023/08/27 08:58:12;;;;;;;3.07;2.03;;;20.10;99.90;;;;;;5157608;27;20035;-78
2023/08/27 09:00:38;;;;;;;3.43;1.80;;;20.10;99.90;;;;;;5139060;27;20054;-77
2023/08/27 09:03:04;;;;;;;4.60;1.83;;;20.10;99.90;;;;;;5157640;27;20058;-77
2023/08/27 09:05:34;;;;;;;4.73;2.07;;;20.00;99.90;;;;;;5157826;27;20046;-79
2023/08/27 09:08:00;;;;;;;3.13;1.73;;;19.90;99.90;;;;;;5157428;27;20053;-77
2023/08/27 09:10:27;;;;;;;3.20;1.60;;;19.90;99.90;;;;;;5157213;27;20074;-78
2023/08/27 09:12:57;;;;;;;3.23;1.50;;;19.80;99.90;;;;;;5157132;27;20051;-78
2023/08/27 09:15:24;;;;;;;2.90;1.30;;;19.70;99.90;;;;;;5157193;27;20098;-79
2023/08/27 09:17:49;;;;;;;2.63;1.53;;;19.70;99.90;;;;;;5156669;27;20436;-78
2023/08/27 09:20:15;;;;;;;3.87;1.50;;;19.70;99.90;;;;;;5157288;27;20102;-79
2023/08/27 09:22:41;;;;;;;2.80;1.20;;;19.70;99.90;;;;;;5156765;27;20068;-78
2023/08/27 09:25:09;;;;;;;3.07;1.50;;;19.70;99.90;;;;;;5157097;27;20046;-81
2023/08/27 09:27:35;;;;;;;2.20;1.50;;;19.70;99.90;;;;;;5121307;27;20121;-77
2023/08/27 09:30:04;;;;;;;3.20;1.60;;;19.70;99.90;;;;;;5157169;27;20038;-77
2023/08/27 09:32:31;;;;;;;3.57;1.90;;;19.70;99.90;;;;;;5156576;27;20486;-78
2023/08/27 09:35:04;;;;;;;3.83;2.00;;;19.80;99.90;;;;;;5138257;27;20095;-76
2023/08/27 09:37:39;;;;;;;4.23;1.80;;;19.90;99.90;;;;;;5138502;27;20054;-75
2023/08/27 09:40:09;;;;;;;3.30;1.60;;;19.90;99.90;;;;;;5137673;27;20121;-77
2023/08/27 09:42:36;;;;;;;3.97;2.10;;;20.10;99.90;;;;;;5153657;27;20054;-77
2023/08/27 09:45:02;;;;;;;3.23;1.57;;;20.20;99.90;;;;;;5137583;27;20043;-77
2023/08/27 09:47:36;;;;;;;3.67;2.00;;;20.10;99.90;;;;;;5156179;27;20051;-76
2023/08/27 09:50:07;;;;;;;4.20;2.10;;;20.20;99.90;;;;;;5138324;27;20043;-78
2023/08/27 09:52:33;;;;;;;6.00;2.43;;;20.20;99.90;;;;;;5156690;27;20042;-78
2023/08/27 09:54:59;;;;;;;5.07;1.83;;;20.20;99.90;;;;;;5156085;27;20046;-78
2023/08/27 09:57:25;;;;;;;4.60;2.30;;;20.20;99.90;;;;;;5156486;27;20038;-79
2023/08/27 09:59:52;;;;;;;3.33;1.70;;;20.10;99.90;;;;;;5156083;27;20049;-78
2023/08/27 10:02:19;;;;;;;4.93;2.17;;;20.20;99.90;;;;;;5156113;27;20517;-73
2023/08/27 10:04:54;;;;;;;4.97;1.70;;;20.20;99.90;;;;;;5156014;27;20042;-74
2023/08/27 10:07:20;;;;;;;5.45;1.88;;;20.20;99.90;;;;;;5156131;27;20497;-73
2023/08/27 10:09:53;;;;;;;3.03;1.53;;;20.30;99.90;;;;;;5155912;27;20382;-79
2023/08/27 10:12:21;;;;;;;2.37;1.40;;;20.30;99.90;;;;;;5156366;27;20107;-81
2023/08/27 10:14:48;;;;;;;3.97;1.57;;;20.30;99.90;;;;;;5137352;27;20042;-80
2023/08/27 10:17:15;;;;;;;4.10;1.83;;;20.30;99.90;;;;;;5137979;27;20047;-78
2023/08/27 10:19:42;;;;;;;3.20;1.47;;;20.40;99.90;;;;;;5155747;27;20460;-77
2023/08/27 10:22:07;;;;;;;3.33;1.97;;;20.50;99.90;;;;;;5155801;27;20125;-78
2023/08/27 10:24:34;;;;;;;4.17;1.70;;;20.60;99.90;;;;;;5155861;27;20126;-80
2023/08/27 10:27:01;;;;;;;3.87;1.80;;;20.60;99.90;;;;;;5155462;27;20046;-81
2023/08/27 10:29:28;;;;;;;3.87;1.87;;;20.50;99.90;;;;;;5102959;27;20103;-79
2023/08/27 10:31:55;;;;;;;3.47;1.80;;;20.60;99.90;;;;;;5155507;27;20054;-80
2023/08/27 10:34:27;;;;;;;6.33;2.17;;;20.60;99.90;;;;;;5120070;27;20394;-79
2023/08/27 10:36:54;;;;;;;4.10;2.07;;;20.50;99.90;;;;;;5155284;27;20462;-79
2023/08/27 10:39:23;;;;;;;4.90;2.40;;;20.50;99.90;;;;;;5155768;27;20043;-79
2023/08/27 10:41:49;;;;;;;3.77;2.40;;;20.50;99.90;;;;;;5136997;27;20129;-80
2023/08/27 10:44:22;;;;;;;4.07;2.20;;;20.50;99.90;;;;;;5155391;27;20141;-78
2023/08/27 10:47:11;;;;;;;3.50;1.80;;;20.50;99.90;;;;;;5155057;27;20129;-80
2023/08/27 10:49:37;;;;;;;3.63;1.90;;;20.60;99.90;;;;;;5136982;27;20529;-78
2023/08/27 10:52:22;;;;;;;5.10;2.10;;;20.60;99.90;;;;;;5119470;27;20569;-80
2023/08/27 10:54:57;;;;;;;4.60;1.60;;;20.70;99.90;;;;;;5136731;27;20478;-79
2023/08/27 10:57:23;;;;;;;3.20;1.80;;;20.70;99.90;;;;;;5155241;27;20078;-79
2023/08/27 10:59:53;;;;;;;5.03;1.80;;;20.80;99.90;;;;;;5136525;27;20428;-78
2023/08/27 11:02:19;;;;;;;3.67;1.73;;;20.90;99.90;;;;;;5155168;27;20491;-73
2023/08/27 11:04:53;;;;;;;4.17;2.13;;;20.90;99.90;;;;;;5154767;27;20058;-81
2023/08/27 11:07:22;;;;;;;5.18;2.95;;;20.90;99.90;;;;;;5155055;27;20050;-76
2023/08/27 11:09:56;;;;;;;26.67;3.90;;;20.90;99.90;;;;;;5154697;27;20050;-77
2023/08/27 11:12:33;;;;;;;6.90;2.67;;;20.80;99.90;;;;;;5154831;27;20414;-77
2023/08/27 11:15:14;;;;;;;10.30;2.97;;;20.80;99.90;;;;;;5118898;27;20042;-74
2023/08/27 11:17:41;;;;;;;7.60;2.40;;;20.70;99.90;;;;;;5155058;27;20065;-75
2023/08/27 11:20:23;;;;;;;5.60;3.23;;;20.60;99.90;;;;;;5119018;27;20053;-76
2023/08/27 11:23:07;;;;;;;2.40;1.33;;;20.50;99.90;;;;;;5154478;27;20043;-79
2023/08/27 11:25:36;;;;;;;4.87;1.30;;;20.30;99.90;;;;;;5115260;27;20047;-77
2023/08/27 11:28:04;;;;;;;3.53;1.23;;;20.00;99.90;;;;;;5138143;27;20050;-76
2023/08/27 11:30:30;;;;;;;4.73;1.13;;;19.70;99.90;;;;;;5123264;27;20046;-78
2023/08/27 11:32:57;;;;;;;6.03;1.97;;;19.50;99.90;;;;;;5133921;27;20081;-77
2023/08/27 11:35:32;;;;;;;6.83;1.43;;;19.40;99.90;;;;;;5153757;27;20054;-77
2023/08/27 11:37:58;;;;;;;9.00;2.17;;;19.30;99.90;;;;;;5118515;27;20386;-77
2023/08/27 11:40:25;;;;;;;7.43;1.50;;;19.10;99.90;;;;;;5121612;27;20047;-76
2023/08/27 11:42:52;;;;;;;4.10;1.33;;;18.90;99.90;;;;;;5139934;27;20050;-77
2023/08/27 11:45:29;;;;;;;3.23;1.20;;;18.70;99.90;;;;;;5139131;27;20043;-76
2023/08/27 11:47:55;;;;;;;8.43;2.30;;;18.50;99.90;;;;;;5139822;27;20078;-75
2023/08/27 11:50:21;;;;;;;6.67;2.13;;;18.40;99.90;;;;;;5139728;27;20490;-76
2023/08/27 11:52:47;;;;;;;4.57;1.30;;;18.10;99.90;;;;;;5158407;27;20047;-75
2023/08/27 11:55:13;;;;;;;4.73;1.33;;;17.90;99.90;;;;;;5155995;27;20367;-81
2023/08/27 11:57:40;;;;;;;5.43;1.50;;;17.60;99.90;;;;;;5156195;27;20389;-74
2023/08/27 12:00:12;;;;;;;2.27;1.13;;;17.40;99.90;;;;;;5158153;27;20042;-74
2023/08/27 12:02:39;;;;;;;3.33;1.40;;;17.20;99.90;;;;;;5158169;27;20058;-74
2023/08/27 12:05:08;;;;;;;3.53;1.00;;;17.10;99.90;;;;;;5157791;27;20053;-74
2023/08/27 12:07:34;;;;;;;1.73;0.97;;;17.10;99.90;;;;;;5135950;27;20497;-74
2023/08/27 12:10:07;;;;;;;2.20;1.10;;;17.10;99.90;;;;;;5139339;27;20474;-74
2023/08/27 12:12:38;;;;;;;3.13;1.50;;;17.20;99.90;;;;;;5157742;27;20138;-74
2023/08/27 12:15:04;;;;;;;4.80;1.33;;;17.40;99.90;;;;;;5157556;27;20058;-74
2023/08/27 12:17:35;;;;;;;3.70;1.20;;;17.50;99.90;;;;;;5139674;27;20486;-73
2023/08/27 12:20:05;;;;;;;4.20;1.30;;;17.70;99.90;;;;;;5139066;27;20478;-74
2023/08/27 12:22:39;;;;;;;2.33;1.00;;;17.70;99.90;;;;;;5158063;27;20042;-74
2023/08/27 12:25:06;;;;;;;2.40;1.30;;;17.80;99.90;;;;;;5138074;27;20502;-74
2023/08/27 12:27:32;;;;;;;3.97;1.30;;;17.90;99.90;;;;;;5105313;27;20046;-74
2023/08/27 12:29:58;;;;;;;2.63;1.30;;;18.00;99.90;;;;;;5157606;27;20103;-75
2023/08/27 12:32:30;;;;;;;3.47;1.53;;;18.10;99.90;;;;;;5139055;27;20034;-75
2023/08/27 12:34:55;;;;;;;4.30;1.83;;;18.20;99.90;;;;;;5157423;27;20058;-76
2023/08/27 12:37:22;;;;;;;2.83;1.60;;;18.30;99.90;;;;;;5138894;27;20039;-75
2023/08/27 12:39:48;;;;;;;3.17;1.20;;;18.40;99.90;;;;;;5139295;27;20039;-74
2023/08/27 12:42:15;;;;;;;2.60;1.13;;;18.50;99.90;;;;;;5138764;27;20047;-74
2023/08/27 12:44:41;;;;;;;3.67;1.30;;;18.50;99.90;;;;;;5139076;27;20042;-74
2023/08/27 12:47:08;;;;;;;5.27;1.50;;;18.50;99.90;;;;;;5156151;27;20047;-74